Time;durP1;ratioP1;P1;durP2;ratioP2;P2;SDS_P1;SDS_P2;PMS_P1;PMS_P2;Temp;Humidity;BMP_temperature;BMP_pressure;BME280_temperature;BME280_humidity;BME280_pressure;Samples;Min_cycle;Max_cycle;Signal;HPM_P1;HPM_P2
2022/08/05 00:01:11;;;;;;;0.40;0.30;;;24.50;79.00;;;;;;4971469;28;20419;-69
2022/08/05 00:03:37;;;;;;;0.40;0.30;;;24.60;80.30;;;;;;4987050;28;20824;-69
2022/08/05 00:06:03;;;;;;;0.40;0.30;;;24.50;81.30;;;;;;4952633;28;20420;-70
2022/08/05 00:08:28;;;;;;;0.40;0.20;;;24.40;81.40;;;;;;4968903;28;20410;-69
2022/08/05 00:10:54;;;;;;;0.40;0.30;;;24.40;80.50;;;;;;4952731;28;20433;-69
2022/08/05 00:13:20;;;;;;;0.80;0.80;;;24.40;83.20;;;;;;4968666;28;20423;-69
2022/08/05 00:15:47;;;;;;;0.50;0.30;;;24.30;82.70;;;;;;4987661;28;20914;-69
2022/08/05 00:18:13;;;;;;;0.40;0.30;;;24.20;83.50;;;;;;4972017;28;20426;-69
2022/08/05 00:20:39;;;;;;;0.40;0.30;;;24.20;82.20;;;;;;4971923;28;20451;-70
2022/08/05 00:23:04;;;;;;;0.40;0.30;;;24.20;84.40;;;;;;5016185;28;20805;-69
2022/08/05 00:25:31;;;;;;;0.43;0.30;;;24.20;84.50;;;;;;5053736;28;20391;-69
2022/08/05 00:27:56;;;;;;;0.40;0.20;;;24.20;85.00;;;;;;5040964;28;20410;-69
2022/08/05 00:30:22;;;;;;;0.50;0.40;;;24.10;85.50;;;;;;4972229;28;21017;-69
2022/08/05 00:32:49;;;;;;;0.50;0.30;;;24.10;86.90;;;;;;4971914;28;20410;-69
2022/08/05 00:35:14;;;;;;;0.40;0.20;;;24.00;87.70;;;;;;4971530;28;20418;-69
2022/08/05 00:37:41;;;;;;;0.47;0.40;;;23.90;89.30;;;;;;4971745;28;20399;-69
2022/08/05 00:40:07;;;;;;;0.40;0.30;;;23.90;89.20;;;;;;5019467;28;20415;-69
2022/08/05 00:42:38;;;;;;;0.40;0.20;;;23.90;88.50;;;;;;5021164;28;20432;-69
2022/08/05 00:45:06;;;;;;;0.50;0.30;;;23.90;89.10;;;;;;4987349;28;20403;-69
2022/08/05 00:47:33;;;;;;;0.50;0.30;;;23.80;89.60;;;;;;4987911;28;20954;-69
2022/08/05 00:49:59;;;;;;;0.40;0.30;;;23.70;90.50;;;;;;4970956;28;20928;-69
2022/08/05 00:52:24;;;;;;;0.40;0.30;;;23.70;90.80;;;;;;4975839;28;20481;-69
2022/08/05 00:54:51;;;;;;;0.40;0.30;;;23.70;90.90;;;;;;4973690;28;20964;-69
2022/08/05 00:57:17;;;;;;;0.40;0.30;;;23.70;90.20;;;;;;5029916;28;20435;-69
2022/08/05 00:59:43;;;;;;;0.50;0.40;;;23.80;89.40;;;;;;5014515;28;20438;-69
2022/08/05 01:02:08;;;;;;;0.40;0.20;;;23.80;91.10;;;;;;4958739;28;20885;-69
2022/08/05 01:04:34;;;;;;;1.10;0.50;;;23.80;91.70;;;;;;4977904;28;20399;-69
2022/08/05 01:07:00;;;;;;;0.40;0.20;;;23.60;92.10;;;;;;4993623;28;20420;-69
2022/08/05 01:09:26;;;;;;;0.40;0.20;;;23.60;92.00;;;;;;4977260;28;20398;-69
2022/08/05 01:11:57;;;;;;;0.40;0.20;;;23.50;92.10;;;;;;4977375;28;20433;-69
2022/08/05 01:14:31;;;;;;;0.40;0.30;;;23.50;92.20;;;;;;5051939;28;20383;-69
2022/08/05 01:17:05;;;;;;;0.40;0.30;;;23.60;93.40;;;;;;5076310;28;20408;-69
2022/08/05 01:19:50;;;;;;;0.40;0.20;;;23.50;93.00;;;;;;5076055;28;20446;-69
2022/08/05 01:22:37;;;;;;;0.40;0.20;;;23.50;94.20;;;;;;5059333;28;20414;-69
2022/08/05 01:25:21;;;;;;;0.40;0.20;;;23.40;93.60;;;;;;4993372;28;20410;-69
2022/08/05 01:28:25;;;;;;;0.40;0.20;;;23.40;94.10;;;;;;4993582;28;20395;-69
2022/08/05 01:31:06;;;;;;;0.40;0.20;;;23.50;95.50;;;;;;5033093;28;20391;-69
2022/08/05 01:33:41;;;;;;;0.50;0.40;;;23.50;95.00;;;;;;5076008;28;20395;-69
2022/08/05 01:36:12;;;;;;;0.40;0.30;;;23.40;94.50;;;;;;5075580;28;20390;-69
2022/08/05 01:38:39;;;;;;;0.40;0.20;;;23.40;93.80;;;;;;5048405;28;20842;-69
2022/08/05 01:41:06;;;;;;;0.40;0.20;;;23.30;94.60;;;;;;4977158;28;20493;-69
2022/08/05 01:43:33;;;;;;;0.40;0.30;;;23.30;95.60;;;;;;4993272;28;20886;-69
2022/08/05 01:46:00;;;;;;;0.40;0.28;;;23.20;95.90;;;;;;4977143;28;20906;-69
2022/08/05 01:48:29;;;;;;;0.40;0.20;;;23.20;97.20;;;;;;5051769;28;20387;-69
2022/08/05 01:50:56;;;;;;;0.40;0.20;;;23.10;97.10;;;;;;5076116;28;20407;-69
2022/08/05 01:53:24;;;;;;;0.47;0.30;;;23.00;98.00;;;;;;5058824;28;20399;-70
2022/08/05 01:55:51;;;;;;;0.80;0.50;;;23.10;98.80;;;;;;5001927;28;20393;-69
2022/08/05 01:58:18;;;;;;;0.40;0.20;;;23.00;98.40;;;;;;4973663;28;20449;-69
2022/08/05 02:00:49;;;;;;;0.40;0.30;;;23.00;98.60;;;;;;4959576;28;20776;-69
2022/08/05 02:03:25;;;;;;;0.40;0.20;;;22.90;98.60;;;;;;4990963;28;20457;-69
2022/08/05 02:05:52;;;;;;;0.40;0.20;;;22.90;98.90;;;;;;5019269;28;20402;-69
2022/08/05 02:08:19;;;;;;;0.40;0.30;;;22.90;99.60;;;;;;4973752;28;20460;-69
2022/08/05 02:10:51;;;;;;;0.40;0.20;;;22.90;99.60;;;;;;4974411;28;20402;-69
2022/08/05 02:13:34;;;;;;;0.40;0.30;;;22.80;99.90;;;;;;4989647;28;20398;-69
2022/08/05 02:16:23;;;;;;;0.40;0.20;;;22.70;99.90;;;;;;4990224;28;20785;-69
2022/08/05 02:18:54;;;;;;;0.40;0.30;;;22.70;99.90;;;;;;4990251;28;20403;-69
2022/08/05 02:21:35;;;;;;;0.40;0.20;;;22.70;99.90;;;;;;5002506;28;20875;-69
2022/08/05 02:24:07;;;;;;;0.77;0.50;;;22.60;99.90;;;;;;4989706;28;20399;-69
2022/08/05 02:26:40;;;;;;;0.40;0.20;;;22.50;99.90;;;;;;4990015;28;20399;-69
2022/08/05 02:29:10;;;;;;;0.40;0.20;;;22.40;99.90;;;;;;4989054;28;20395;-69
2022/08/05 02:31:37;;;;;;;0.40;0.20;;;22.50;99.90;;;;;;4989881;28;20822;-69
2022/08/05 02:34:12;;;;;;;0.50;0.30;;;22.50;99.90;;;;;;4973532;28;20755;-69
2022/08/05 02:36:45;;;;;;;0.47;0.30;;;22.40;99.90;;;;;;4974099;28;20403;-69
2022/08/05 02:39:14;;;;;;;0.60;0.40;;;22.30;99.90;;;;;;5039054;28;20380;-69
2022/08/05 02:41:41;;;;;;;0.50;0.30;;;22.30;99.90;;;;;;5055535;28;20816;-69
2022/08/05 02:44:09;;;;;;;0.50;0.30;;;22.30;99.90;;;;;;5054805;28;20868;-69
2022/08/05 02:46:44;;;;;;;0.50;0.40;;;22.30;99.90;;;;;;5024725;28;20422;-69
2022/08/05 02:49:13;;;;;;;0.40;0.30;;;22.20;99.90;;;;;;4989292;28;20874;-69
2022/08/05 02:51:40;;;;;;;0.40;0.30;;;22.20;99.90;;;;;;4973764;28;20409;-69
2022/08/05 02:54:06;;;;;;;0.40;0.20;;;22.10;99.90;;;;;;4972947;28;20478;-70
2022/08/05 02:56:33;;;;;;;0.40;0.30;;;22.10;99.90;;;;;;5031199;28;20383;-69
2022/08/05 02:59:00;;;;;;;0.40;0.20;;;22.10;99.90;;;;;;5040452;28;20405;-69
2022/08/05 03:01:27;;;;;;;0.40;0.30;;;22.10;99.90;;;;;;4953694;28;20491;-69
2022/08/05 03:04:00;;;;;;;0.45;0.30;;;22.10;99.90;;;;;;4957930;28;20883;-69
2022/08/05 03:06:26;;;;;;;0.40;0.30;;;22.10;99.90;;;;;;4988829;28;20481;-69
2022/08/05 03:08:53;;;;;;;0.40;0.30;;;22.10;99.90;;;;;;4973052;28;20394;-69
2022/08/05 03:11:24;;;;;;;0.40;0.20;;;22.10;99.90;;;;;;4989075;28;20399;-69
2022/08/05 03:13:51;;;;;;;0.40;0.30;;;22.10;99.90;;;;;;5062413;28;20392;-69
2022/08/05 03:16:18;;;;;;;0.50;0.50;;;22.00;99.90;;;;;;5069821;28;20398;-69
2022/08/05 03:18:44;;;;;;;0.40;0.30;;;22.00;99.90;;;;;;5054947;28;20403;-69
2022/08/05 03:21:10;;;;;;;0.40;0.22;;;22.00;99.90;;;;;;4993851;28;20427;-69
2022/08/05 03:23:39;;;;;;;0.40;0.20;;;22.00;99.90;;;;;;4972951;28;20460;-69
2022/08/05 03:26:05;;;;;;;1.00;0.80;;;22.00;99.90;;;;;;4988790;28;20406;-69
2022/08/05 03:28:33;;;;;;;0.40;0.30;;;22.10;99.90;;;;;;4972470;28;20476;-69
2022/08/05 03:30:59;;;;;;;0.40;0.30;;;22.10;99.90;;;;;;5050192;28;20406;-69
2022/08/05 03:33:27;;;;;;;0.80;0.70;;;22.20;99.90;;;;;;5071199;28;20392;-69
2022/08/05 03:35:55;;;;;;;0.40;0.20;;;22.10;99.90;;;;;;5055081;28;20439;-69
2022/08/05 03:38:23;;;;;;;0.40;0.30;;;22.10;99.90;;;;;;5028359;28;20441;-69
2022/08/05 03:40:48;;;;;;;0.40;0.20;;;22.10;99.90;;;;;;4972807;28;20427;-69
2022/08/05 03:43:16;;;;;;;0.40;0.20;;;22.10;99.90;;;;;;4988728;28;20409;-69
2022/08/05 03:45:42;;;;;;;0.40;0.30;;;22.10;99.90;;;;;;4972637;28;20415;-69
2022/08/05 03:48:07;;;;;;;0.40;0.30;;;22.10;99.90;;;;;;5087358;28;20901;-69
2022/08/05 03:50:47;;;;;;;0.40;0.20;;;22.10;99.90;;;;;;5054274;28;20407;-69
2022/08/05 03:53:38;;;;;;;0.40;0.30;;;22.00;99.90;;;;;;5058443;28;20455;-69
2022/08/05 03:56:31;;;;;;;0.40;0.30;;;22.10;99.90;;;;;;4974090;28;20404;-69
2022/08/05 03:59:08;;;;;;;0.45;0.28;;;22.00;99.90;;;;;;4963915;28;20395;-69
2022/08/05 04:01:38;;;;;;;0.60;0.60;;;22.00;99.90;;;;;;4971003;28;20456;-69
2022/08/05 04:04:04;;;;;;;0.40;0.30;;;22.00;99.90;;;;;;5026000;28;20743;-69
2022/08/05 04:06:34;;;;;;;0.40;0.20;;;21.90;99.90;;;;;;5070696;28;20399;-69
2022/08/05 04:09:04;;;;;;;0.40;0.30;;;21.90;99.90;;;;;;4987990;28;20411;-69
2022/08/05 04:11:31;;;;;;;1.20;1.10;;;21.90;99.90;;;;;;4972334;28;20804;-69
2022/08/05 04:13:58;;;;;;;0.40;0.30;;;21.90;99.90;;;;;;4973743;28;20417;-69
2022/08/05 04:16:24;;;;;;;0.40;0.20;;;21.80;99.90;;;;;;4972159;28;20434;-69
2022/08/05 04:18:51;;;;;;;0.40;0.30;;;21.80;99.90;;;;;;4972751;28;20395;-69
2022/08/05 04:21:17;;;;;;;0.70;0.70;;;21.90;99.90;;;;;;5024704;28;20407;-69
2022/08/05 04:23:43;;;;;;;0.40;0.30;;;21.90;99.90;;;;;;5015995;28;20877;-69
2022/08/05 04:26:08;;;;;;;0.40;0.30;;;22.00;99.90;;;;;;4971831;28;20478;-69
2022/08/05 04:28:34;;;;;;;0.40;0.30;;;22.00;99.90;;;;;;4988851;28;20752;-69
2022/08/05 04:31:00;;;;;;;0.50;0.40;;;22.00;99.90;;;;;;4972177;28;20763;-69
2022/08/05 04:33:27;;;;;;;0.40;0.20;;;22.00;99.90;;;;;;4971954;28;20403;-69
2022/08/05 04:35:53;;;;;;;0.40;0.30;;;22.00;99.90;;;;;;4972530;28;20425;-69
2022/08/05 04:38:18;;;;;;;1.50;1.10;;;22.20;99.90;;;;;;5041994;28;20380;-69
2022/08/05 04:40:44;;;;;;;0.40;0.30;;;23.30;99.90;;;;;;5053607;28;20418;-69
2022/08/05 04:43:10;;;;;;;0.40;0.30;;;23.50;99.90;;;;;;5053238;28;20495;-69
2022/08/05 04:45:36;;;;;;;0.40;0.20;;;23.60;99.90;;;;;;5015520;28;20486;-69
2022/08/05 04:48:08;;;;;;;0.40;0.20;;;23.60;99.90;;;;;;4988260;28;20827;-69
2022/08/05 04:50:44;;;;;;;0.40;0.30;;;23.60;99.90;;;;;;4985237;28;20766;-69
2022/08/05 04:53:12;;;;;;;0.40;0.30;;;23.60;99.90;;;;;;4988144;28;20803;-69
2022/08/05 04:55:39;;;;;;;0.50;0.40;;;23.70;99.90;;;;;;4995912;28;20401;-68
2022/08/05 04:58:07;;;;;;;0.40;0.20;;;23.80;99.50;;;;;;4968559;28;20384;-69
2022/08/05 05:00:33;;;;;;;0.40;0.30;;;23.70;99.80;;;;;;4966444;28;20434;-68
2022/08/05 05:02:59;;;;;;;0.80;0.70;;;23.70;99.90;;;;;;4988297;28;20406;-67
2022/08/05 05:05:25;;;;;;;0.40;0.20;;;23.70;99.90;;;;;;4987604;28;20394;-68
2022/08/05 05:07:51;;;;;;;0.70;0.70;;;23.70;99.90;;;;;;4971838;28;20910;-67
2022/08/05 05:10:17;;;;;;;0.40;0.40;;;23.90;99.90;;;;;;4971329;28;20503;-67
2022/08/05 05:12:43;;;;;;;0.40;0.30;;;24.00;99.90;;;;;;5038708;28;20486;-68
2022/08/05 05:15:09;;;;;;;0.40;0.20;;;23.90;99.90;;;;;;5002934;28;20489;-68
2022/08/05 05:17:39;;;;;;;0.60;0.60;;;24.00;99.90;;;;;;4971143;28;20942;-68
2022/08/05 05:20:07;;;;;;;0.40;0.28;;;24.00;99.90;;;;;;4971377;28;20519;-68
2022/08/05 05:22:33;;;;;;;0.40;0.30;;;23.90;99.90;;;;;;4971878;28;20451;-68
2022/08/05 05:24:59;;;;;;;0.40;0.30;;;23.90;99.90;;;;;;4966996;28;20411;-68
2022/08/05 05:27:28;;;;;;;0.70;0.70;;;23.90;99.90;;;;;;4968846;28;20414;-68
2022/08/05 05:29:53;;;;;;;0.40;0.30;;;23.90;99.90;;;;;;4970782;28;20418;-67
2022/08/05 05:32:19;;;;;;;0.40;0.30;;;23.80;99.90;;;;;;4971108;28;20418;-67
2022/08/05 05:34:44;;;;;;;6.50;1.60;;;23.80;99.90;;;;;;4983513;28;20414;-68
2022/08/05 05:37:13;;;;;;;0.40;0.30;;;23.80;99.90;;;;;;4964473;28;20967;-68
2022/08/05 05:39:39;;;;;;;0.40;0.30;;;23.90;99.90;;;;;;4971644;28;20555;-68
2022/08/05 05:42:05;;;;;;;0.40;0.20;;;23.90;99.90;;;;;;4970380;28;20445;-68
2022/08/05 05:44:32;;;;;;;0.40;0.30;;;24.00;99.90;;;;;;4970942;28;20444;-68
2022/08/05 05:46:58;;;;;;;0.40;0.30;;;24.10;99.90;;;;;;4973527;28;20437;-68
2022/08/05 05:49:25;;;;;;;0.50;0.50;;;24.10;99.90;;;;;;4972567;28;20410;-68
2022/08/05 05:51:51;;;;;;;0.40;0.20;;;24.30;99.90;;;;;;4974549;28;20406;-68
2022/08/05 05:54:18;;;;;;;0.40;0.30;;;24.20;99.90;;;;;;4971838;28;20473;-68
2022/08/05 05:56:44;;;;;;;0.40;0.20;;;24.40;99.90;;;;;;4971248;28;20767;-68
2022/08/05 05:59:10;;;;;;;0.60;0.60;;;24.40;99.90;;;;;;4971324;28;20402;-68
2022/08/05 06:01:39;;;;;;;0.40;0.20;;;24.50;99.90;;;;;;4991315;28;20913;-68
2022/08/05 06:04:10;;;;;;;0.40;0.30;;;24.50;99.90;;;;;;4990307;28;20428;-68
2022/08/05 06:06:37;;;;;;;0.40;0.30;;;24.50;99.90;;;;;;4990126;28;20399;-68
2022/08/05 06:09:06;;;;;;;0.40;0.30;;;24.60;99.90;;;;;;4993115;28;20411;-69
2022/08/05 06:11:32;;;;;;;0.40;0.30;;;24.60;99.90;;;;;;4969811;28;20437;-70
2022/08/05 06:13:59;;;;;;;0.40;0.30;;;24.60;99.90;;;;;;4973832;28;20898;-69
2022/08/05 06:16:24;;;;;;;0.40;0.30;;;24.80;99.90;;;;;;4971371;28;20417;-69
2022/08/05 06:18:50;;;;;;;0.50;0.30;;;25.00;99.90;;;;;;4995781;28;20501;-69
2022/08/05 06:21:17;;;;;;;0.90;0.80;;;25.00;99.90;;;;;;4991319;28;20424;-68
2022/08/05 06:23:43;;;;;;;0.40;0.30;;;25.20;98.10;;;;;;4954396;28;20405;-69
2022/08/05 06:26:09;;;;;;;0.50;0.40;;;25.20;99.70;;;;;;4954744;28;20484;-69
2022/08/05 06:28:40;;;;;;;0.40;0.20;;;25.20;99.90;;;;;;4957727;28;20477;-69
2022/08/05 06:31:06;;;;;;;0.40;0.20;;;25.40;97.60;;;;;;4964086;28;20400;-68
2022/08/05 06:33:32;;;;;;;0.50;0.40;;;25.40;98.10;;;;;;4967116;28;20499;-69
2022/08/05 06:35:58;;;;;;;0.40;0.30;;;25.50;97.90;;;;;;4967113;28;20421;-68
2022/08/05 06:38:24;;;;;;;0.50;0.40;;;25.50;98.20;;;;;;4966056;28;20406;-68
2022/08/05 06:40:51;;;;;;;0.40;0.30;;;25.50;98.30;;;;;;4966970;28;20449;-69
2022/08/05 06:43:17;;;;;;;0.40;0.25;;;25.60;98.00;;;;;;4967116;28;20437;-69
2022/08/05 06:45:43;;;;;;;0.40;0.20;;;25.70;96.80;;;;;;4970181;28;20453;-69
2022/08/05 06:48:10;;;;;;;0.50;0.40;;;25.80;96.40;;;;;;4990857;28;20890;-68
2022/08/05 06:50:36;;;;;;;0.40;0.30;;;25.80;97.00;;;;;;4973053;28;20484;-69
2022/08/05 06:53:02;;;;;;;0.40;0.22;;;25.70;96.60;;;;;;4973412;28;20406;-69
2022/08/05 06:55:28;;;;;;;0.40;0.20;;;25.60;98.40;;;;;;4976665;28;20887;-69
2022/08/05 06:57:54;;;;;;;0.50;0.40;;;25.60;97.50;;;;;;4983255;28;20486;-69
2022/08/05 07:00:20;;;;;;;0.40;0.20;;;25.70;97.50;;;;;;4966056;28;20490;-68
2022/08/05 07:02:47;;;;;;;0.40;0.30;;;25.60;97.00;;;;;;4966707;28;20443;-69
2022/08/05 07:05:14;;;;;;;0.40;0.30;;;25.50;96.60;;;;;;4997065;28;20430;-68
2022/08/05 07:07:42;;;;;;;0.40;0.20;;;25.50;95.60;;;;;;4970435;28;20454;-69
2022/08/05 07:10:09;;;;;;;0.40;0.20;;;25.40;95.80;;;;;;4986202;28;20404;-70
2022/08/05 07:18:05;;;;;;;0.40;0.30;;;25.40;96.80;;;;;;5004773;28;20463;-69
2022/08/05 07:20:31;;;;;;;0.68;0.57;;;25.40;95.60;;;;;;4988614;28;20422;-69
2022/08/05 07:22:57;;;;;;;0.40;0.20;;;25.40;95.50;;;;;;4972922;28;20394;-69
2022/08/05 07:25:23;;;;;;;0.40;0.30;;;25.40;97.30;;;;;;4972987;28;20827;-69
2022/08/05 07:27:51;;;;;;;0.40;0.30;;;25.40;97.30;;;;;;4988732;28;20430;-68
2022/08/05 07:30:16;;;;;;;0.40;0.30;;;25.40;95.70;;;;;;4972128;28;20410;-69
2022/08/05 07:32:42;;;;;;;0.40;0.20;;;25.40;95.70;;;;;;4972216;28;20409;-68
2022/08/05 07:35:10;;;;;;;0.40;0.20;;;25.50;96.10;;;;;;4972650;28;20406;-68
2022/08/05 07:37:36;;;;;;;0.40;0.20;;;25.70;95.30;;;;;;4972469;28;20403;-68
2022/08/05 07:40:03;;;;;;;0.40;0.30;;;25.70;95.70;;;;;;4972325;28;20423;-68
2022/08/05 07:42:29;;;;;;;0.40;0.40;;;25.90;95.00;;;;;;4988606;28;21011;-68
2022/08/05 07:44:54;;;;;;;0.40;0.30;;;25.90;94.70;;;;;;4972396;28;20486;-67
2022/08/05 07:47:21;;;;;;;0.40;0.30;;;26.00;93.50;;;;;;4972173;28;20403;-68
2022/08/05 07:49:47;;;;;;;0.40;0.30;;;25.80;94.70;;;;;;4972573;28;20456;-68
2022/08/05 07:52:12;;;;;;;0.40;0.30;;;25.90;95.10;;;;;;4972671;28;20462;-68
2022/08/05 07:54:38;;;;;;;0.40;0.30;;;26.00;95.40;;;;;;4968549;28;20471;-68
2022/08/05 07:57:05;;;;;;;0.40;0.30;;;26.10;94.90;;;;;;4968971;28;20479;-67
2022/08/05 07:59:31;;;;;;;0.40;0.30;;;26.30;93.80;;;;;;4952970;28;20435;-68
2022/08/05 08:01:57;;;;;;;0.40;0.30;;;26.60;90.80;;;;;;4968124;28;20393;-68
2022/08/05 08:04:24;;;;;;;0.40;0.30;;;26.60;91.00;;;;;;4953095;28;20432;-68
2022/08/05 08:06:49;;;;;;;0.40;0.30;;;26.60;91.60;;;;;;4972141;28;20481;-69
2022/08/05 08:09:15;;;;;;;0.40;0.30;;;26.60;92.00;;;;;;4972077;28;20425;-69
2022/08/05 08:11:41;;;;;;;0.40;0.30;;;26.60;91.90;;;;;;4988079;28;20422;-68
2022/08/05 08:14:08;;;;;;;0.40;0.30;;;26.70;89.70;;;;;;4987980;28;20406;-68
2022/08/05 08:16:34;;;;;;;0.40;0.20;;;26.80;89.30;;;;;;4987673;28;20406;-68
2022/08/05 08:19:00;;;;;;;0.40;0.20;;;26.90;88.90;;;;;;4971947;28;20494;-69
2022/08/05 08:21:26;;;;;;;0.40;0.20;;;26.90;90.10;;;;;;4971840;28;20418;-69
2022/08/05 08:23:52;;;;;;;1.00;0.70;;;26.90;84.80;;;;;;4971785;28;20403;-69
2022/08/05 08:26:19;;;;;;;0.40;0.30;;;26.90;83.50;;;;;;4972355;28;20403;-68
2022/08/05 08:28:45;;;;;;;0.40;0.20;;;26.90;84.80;;;;;;4971204;28;20403;-69
2022/08/05 08:31:10;;;;;;;0.40;0.28;;;27.00;85.90;;;;;;4972308;28;20399;-68
2022/08/05 08:33:37;;;;;;;0.40;0.30;;;27.10;85.50;;;;;;4971831;28;20433;-68
2022/08/05 08:36:03;;;;;;;0.40;0.20;;;27.20;86.50;;;;;;4972205;28;20755;-68
2022/08/05 08:38:29;;;;;;;0.40;0.20;;;27.30;83.70;;;;;;4971546;28;20501;-69
2022/08/05 08:40:55;;;;;;;0.40;0.30;;;27.40;81.10;;;;;;4971260;28;20423;-71
2022/08/05 08:43:23;;;;;;;0.40;0.20;;;27.40;81.60;;;;;;4988010;28;20509;-69
2022/08/05 08:45:53;;;;;;;0.40;0.30;;;27.50;80.80;;;;;;4971504;28;20517;-68
2022/08/05 08:48:20;;;;;;;0.40;0.30;;;27.70;78.00;;;;;;4971998;28;20890;-68
2022/08/05 08:50:46;;;;;;;0.40;0.30;;;27.80;79.10;;;;;;4971584;28;20484;-68
2022/08/05 08:53:15;;;;;;;0.40;0.30;;;27.90;77.20;;;;;;4971577;28;20759;-68
2022/08/05 08:55:42;;;;;;;1.05;0.35;;;28.00;77.70;;;;;;4967972;28;20946;-68
2022/08/05 08:58:09;;;;;;;0.40;0.30;;;28.20;74.10;;;;;;4971848;28;20414;-69
2022/08/05 09:00:36;;;;;;;0.40;0.30;;;28.40;75.70;;;;;;4987048;28;20464;-68
2022/08/05 09:03:06;;;;;;;0.40;0.20;;;28.50;75.40;;;;;;4971568;28;20411;-68
2022/08/05 09:05:31;;;;;;;0.40;0.20;;;28.40;76.00;;;;;;4971398;28;20732;-68
2022/08/05 09:07:57;;;;;;;0.40;0.20;;;28.30;75.70;;;;;;4987680;28;20413;-68
2022/08/05 09:10:23;;;;;;;0.40;0.30;;;28.30;75.70;;;;;;4987582;28;20402;-68
2022/08/05 09:12:49;;;;;;;0.40;0.30;;;28.50;73.60;;;;;;4988860;28;20403;-69
2022/08/05 09:15:16;;;;;;;0.40;0.30;;;28.60;73.90;;;;;;4974843;28;20793;-68
2022/08/05 09:17:42;;;;;;;0.40;0.20;;;28.60;73.90;;;;;;4974635;28;20430;-69
2022/08/05 09:20:10;;;;;;;0.40;0.20;;;28.50;72.80;;;;;;4990905;28;20459;-68
2022/08/05 09:23:04;;;;;;;0.40;0.30;;;28.60;72.70;;;;;;4974621;28;20491;-68
2022/08/05 09:25:30;;;;;;;0.40;0.20;;;28.70;71.60;;;;;;4990818;28;20398;-68
2022/08/05 09:28:04;;;;;;;0.40;0.25;;;28.80;71.90;;;;;;4974732;28;20414;-68
2022/08/05 09:30:30;;;;;;;0.40;0.20;;;28.90;71.60;;;;;;4974386;28;20417;-68
2022/08/05 09:33:01;;;;;;;0.40;0.20;;;28.90;70.70;;;;;;4974913;28;20393;-68
2022/08/05 09:35:28;;;;;;;0.50;0.43;;;29.10;71.30;;;;;;4971413;28;20395;-69
2022/08/05 09:37:55;;;;;;;0.40;0.20;;;29.40;68.90;;;;;;4970577;28;20400;-69
2022/08/05 09:40:48;;;;;;;0.40;0.30;;;29.40;69.30;;;;;;4971349;28;20452;-69
2022/08/05 09:43:31;;;;;;;0.40;0.30;;;29.20;69.60;;;;;;4984588;28;20455;-69
2022/08/05 09:46:05;;;;;;;0.40;0.30;;;29.10;68.60;;;;;;4970728;28;20417;-68
2022/08/05 09:48:34;;;;;;;0.40;0.20;;;29.30;69.30;;;;;;4971085;28;20768;-68
2022/08/05 09:51:08;;;;;;;0.40;0.20;;;29.50;67.20;;;;;;4955089;28;20888;-69
2022/08/05 09:53:54;;;;;;;0.40;0.20;;;29.60;67.50;;;;;;4970597;28;20408;-69
2022/08/05 09:56:36;;;;;;;0.40;0.30;;;29.60;67.50;;;;;;4971164;28;20528;-69
2022/08/05 09:59:08;;;;;;;0.40;0.30;;;29.80;69.20;;;;;;4955335;28;20475;-68
2022/08/05 10:01:40;;;;;;;0.40;0.20;;;29.90;67.50;;;;;;4970926;28;20438;-69
2022/08/05 10:04:12;;;;;;;0.40;0.20;;;30.00;67.10;;;;;;4970892;28;20416;-69
2022/08/05 10:07:09;;;;;;;0.40;0.28;;;30.00;66.60;;;;;;4954337;28;20428;-68
2022/08/05 10:09:37;;;;;;;0.40;0.30;;;30.10;65.60;;;;;;4970230;28;20396;-68
2022/08/05 10:12:09;;;;;;;0.40;0.20;;;30.00;63.60;;;;;;4982338;28;20411;-68
2022/08/05 10:14:35;;;;;;;0.40;0.30;;;29.70;64.20;;;;;;4990182;28;20902;-68
2022/08/05 10:17:14;;;;;;;0.40;0.20;;;29.80;64.90;;;;;;4974090;28;20932;-68
2022/08/05 10:19:40;;;;;;;0.40;0.20;;;30.00;64.80;;;;;;4989597;28;20490;-68
2022/08/05 10:22:07;;;;;;;0.40;0.20;;;30.30;65.30;;;;;;4989674;28;20899;-68
2022/08/05 10:24:34;;;;;;;0.40;0.30;;;30.60;61.80;;;;;;4973086;28;20399;-68
2022/08/05 10:27:00;;;;;;;0.40;0.20;;;30.50;62.90;;;;;;4973867;28;20414;-68
2022/08/05 10:29:28;;;;;;;0.40;0.20;;;30.50;60.80;;;;;;4989240;28;20394;-69
2022/08/05 10:31:55;;;;;;;0.40;0.20;;;30.50;61.40;;;;;;4974267;28;20437;-68
2022/08/05 10:34:22;;;;;;;0.40;0.20;;;30.30;60.80;;;;;;4973649;28;20497;-68
2022/08/05 10:36:49;;;;;;;0.40;0.20;;;30.60;62.60;;;;;;4973503;28;20521;-69
2022/08/05 10:39:23;;;;;;;0.40;0.20;;;30.90;60.00;;;;;;4973137;28;20487;-68
2022/08/05 10:42:01;;;;;;;0.40;0.30;;;30.90;60.20;;;;;;4989362;28;20503;-68
2022/08/05 10:44:30;;;;;;;0.40;0.30;;;30.70;59.20;;;;;;4989400;28;20531;-68
2022/08/05 10:47:12;;;;;;;0.40;0.20;;;30.50;59.30;;;;;;4971501;28;20526;-69
2022/08/05 10:50:01;;;;;;;0.40;0.20;;;30.70;59.30;;;;;;5000816;28;20408;-68
2022/08/05 10:52:56;;;;;;;0.40;0.20;;;30.80;59.90;;;;;;4999085;28;20409;-68
2022/08/05 10:55:23;;;;;;;0.40;0.20;;;30.90;59.90;;;;;;4969220;28;20443;-68
2022/08/05 10:58:10;;;;;;;0.40;0.20;;;31.10;59.10;;;;;;4969138;28;20880;-67
2022/08/05 11:00:37;;;;;;;0.40;0.20;;;31.10;58.20;;;;;;4999913;28;20420;-68
2022/08/05 11:03:09;;;;;;;3.40;1.00;;;31.00;59.00;;;;;;4951237;28;20408;-68
2022/08/05 11:05:38;;;;;;;0.40;0.20;;;30.90;58.70;;;;;;4973246;28;21199;-68
2022/08/05 11:08:10;;;;;;;0.40;0.20;;;30.80;59.00;;;;;;4968371;28;20396;-68
2022/08/05 11:10:40;;;;;;;0.40;0.20;;;30.90;58.60;;;;;;4968869;28;20474;-68
2022/08/05 11:13:06;;;;;;;0.40;0.20;;;30.80;58.20;;;;;;4966430;28;20408;-67
2022/08/05 11:15:38;;;;;;;0.40;0.20;;;30.40;57.60;;;;;;4952277;28;20818;-67
2022/08/05 11:18:13;;;;;;;0.40;0.30;;;30.80;58.30;;;;;;4970921;28;20804;-68
2022/08/05 11:20:46;;;;;;;0.40;0.30;;;31.10;58.20;;;;;;4968313;28;20424;-68
2022/08/05 11:23:32;;;;;;;0.40;0.20;;;31.00;57.30;;;;;;4952533;28;20440;-68
2022/08/05 11:26:08;;;;;;;0.40;0.20;;;31.20;57.70;;;;;;5000355;28;20401;-68
2022/08/05 11:28:36;;;;;;;0.40;0.20;;;31.30;58.00;;;;;;4967968;28;20772;-68
2022/08/05 11:31:02;;;;;;;0.40;0.20;;;31.20;56.70;;;;;;4969608;28;20550;-68
2022/08/05 11:33:29;;;;;;;0.40;0.20;;;31.30;57.50;;;;;;4968435;28;20409;-68
2022/08/05 11:36:00;;;;;;;0.40;0.20;;;31.60;56.10;;;;;;4950750;28;20401;-68
2022/08/05 11:38:42;;;;;;;0.40;0.30;;;31.50;56.10;;;;;;4984810;28;20446;-68
2022/08/05 11:41:15;;;;;;;0.40;0.20;;;31.60;57.70;;;;;;4998583;28;20428;-68
2022/08/05 11:44:06;;;;;;;0.40;0.20;;;31.90;57.40;;;;;;4968019;28;20403;-68
2022/08/05 11:46:34;;;;;;;0.40;0.20;;;32.20;57.20;;;;;;4969384;28;20785;-68
2022/08/05 11:49:01;;;;;;;0.40;0.20;;;32.30;55.70;;;;;;4967838;28;20899;-69
2022/08/05 11:51:29;;;;;;;0.40;0.20;;;32.40;56.90;;;;;;4967769;28;20775;-69
2022/08/05 11:53:56;;;;;;;0.40;0.20;;;32.40;56.90;;;;;;4968502;28;20393;-69
2022/08/05 11:56:22;;;;;;;0.40;0.20;;;32.40;56.40;;;;;;4986371;28;20785;-68
2022/08/05 11:58:49;;;;;;;0.40;0.20;;;32.30;57.80;;;;;;4951579;28;20864;-69
2022/08/05 12:01:21;;;;;;;0.40;0.30;;;32.50;57.10;;;;;;4968922;28;21039;-68
2022/08/05 12:03:52;;;;;;;0.40;0.20;;;33.10;55.70;;;;;;5005892;28;20425;-68
2022/08/05 12:06:22;;;;;;;0.40;0.20;;;33.20;54.50;;;;;;4969141;28;20475;-68
2022/08/05 12:08:51;;;;;;;0.40;0.20;;;32.70;54.20;;;;;;4967329;28;20404;-68
2022/08/05 12:11:23;;;;;;;0.40;0.20;;;32.50;55.80;;;;;;4967132;28;20396;-69
2022/08/05 12:14:04;;;;;;;0.40;0.20;;;32.30;56.40;;;;;;4998010;28;20411;-68
2022/08/05 12:16:35;;;;;;;0.45;0.35;;;32.10;56.90;;;;;;4965896;28;20818;-68
2022/08/05 12:19:05;;;;;;;0.40;0.20;;;32.10;56.80;;;;;;4981292;28;20957;-69
2022/08/05 12:21:42;;;;;;;0.40;0.20;;;32.70;56.20;;;;;;4968237;28;20431;-68
2022/08/05 12:24:17;;;;;;;0.40;0.30;;;32.80;55.70;;;;;;4966216;28;20408;-68
2022/08/05 12:26:49;;;;;;;0.40;0.20;;;32.90;55.90;;;;;;4964945;28;20432;-69
2022/08/05 12:29:17;;;;;;;0.80;0.80;;;33.70;54.50;;;;;;4967606;28;20761;-68
2022/08/05 12:31:48;;;;;;;0.40;0.20;;;33.30;54.30;;;;;;4967923;28;20419;-69
2022/08/05 12:34:16;;;;;;;0.40;0.20;;;33.00;55.70;;;;;;4983110;28;20920;-68
2022/08/05 12:36:45;;;;;;;0.40;0.20;;;32.60;56.00;;;;;;4966233;28;20393;-68
2022/08/05 12:39:13;;;;;;;0.40;0.20;;;32.70;56.20;;;;;;4951528;28;20753;-68
2022/08/05 12:41:41;;;;;;;0.40;0.20;;;33.00;56.70;;;;;;4951167;28;20971;-69
2022/08/05 12:44:14;;;;;;;0.40;0.30;;;32.90;54.70;;;;;;4951325;28;20404;-68
2022/08/05 12:46:43;;;;;;;0.40;0.20;;;33.00;54.60;;;;;;4968134;28;20920;-68
2022/08/05 12:49:14;;;;;;;0.40;0.20;;;32.60;54.20;;;;;;4950923;28;20415;-68
2022/08/05 12:51:58;;;;;;;0.40;0.20;;;33.00;54.30;;;;;;4966561;28;20412;-68
2022/08/05 12:54:27;;;;;;;0.40;0.20;;;33.00;54.00;;;;;;4998278;28;20391;-67
2022/08/05 12:57:01;;;;;;;0.40;0.20;;;33.10;55.00;;;;;;4968179;28;20476;-68
2022/08/05 12:59:33;;;;;;;0.40;0.20;;;33.20;53.40;;;;;;4950734;28;20431;-68
2022/08/05 13:02:06;;;;;;;0.40;0.20;;;33.50;53.00;;;;;;4962285;28;20749;-68
2022/08/05 13:04:36;;;;;;;0.40;0.20;;;34.50;51.40;;;;;;4969311;28;20461;-68